sensor_id;sensor_type;location;lat;lon;timestamp;temperature;humidity
64209;DHT22;50527;52.414;13.226;2023-07-02T00:01:08;18.30;99.90
64209;DHT22;50527;52.414;13.226;2023-07-02T00:03:33;18.30;99.90
64209;DHT22;50527;52.414;13.226;2023-07-02T00:05:59;18.20;99.90
64209;DHT22;50527;52.414;13.226;2023-07-02T00:08:24;18.20;99.90
64209;DHT22;50527;52.414;13.226;2023-07-02T00:10:50;18.20;99.90
64209;DHT22;50527;52.414;13.226;2023-07-02T00:13:15;18.20;99.90
64209;DHT22;50527;52.414;13.226;2023-07-02T00:15:41;18.20;99.90
64209;DHT22;50527;52.414;13.226;2023-07-02T00:18:06;18.20;99.90
64209;DHT22;50527;52.414;13.226;2023-07-02T00:20:33;18.20;99.90
64209;DHT22;50527;52.414;13.226;2023-07-02T00:23:06;18.20;99.90
64209;DHT22;50527;52.414;13.226;2023-07-02T00:25:34;18.20;99.90
64209;DHT22;50527;52.414;13.226;2023-07-02T00:27:59;18.30;99.90
64209;DHT22;50527;52.414;13.226;2023-07-02T00:30:25;18.30;99.90
64209;DHT22;50527;52.414;13.226;2023-07-02T00:32:50;18.30;99.90
64209;DHT22;50527;52.414;13.226;2023-07-02T00:35:16;18.20;99.90
64209;DHT22;50527;52.414;13.226;2023-07-02T00:37:41;18.30;99.90
64209;DHT22;50527;52.414;13.226;2023-07-02T00:40:07;18.30;99.90
64209;DHT22;50527;52.414;13.226;2023-07-02T00:42:33;18.30;99.90
64209;DHT22;50527;52.414;13.226;2023-07-02T00:44:59;18.30;99.90
64209;DHT22;50527;52.414;13.226;2023-07-02T00:47:28;18.30;99.90
64209;DHT22;50527;52.414;13.226;2023-07-02T00:49:55;18.30;99.90
64209;DHT22;50527;52.414;13.226;2023-07-02T00:52:20;18.20;99.90
64209;DHT22;50527;52.414;13.226;2023-07-02T00:54:46;18.30;99.90
64209;DHT22;50527;52.414;13.226;2023-07-02T00:57:12;18.30;99.90
64209;DHT22;50527;52.414;13.226;2023-07-02T00:59:37;18.20;99.90
64209;DHT22;50527;52.414;13.226;2023-07-02T01:02:04;18.20;99.90
64209;DHT22;50527;52.414;13.226;2023-07-02T01:04:30;18.20;99.90
64209;DHT22;50527;52.414;13.226;2023-07-02T01:06:56;18.20;99.90
64209;DHT22;50527;52.414;13.226;2023-07-02T01:09:23;18.20;99.90
64209;DHT22;50527;52.414;13.226;2023-07-02T01:11:55;18.20;99.90
64209;DHT22;50527;52.414;13.226;2023-07-02T01:14:33;18.20;99.90
64209;DHT22;50527;52.414;13.226;2023-07-02T01:17:01;18.20;99.90
64209;DHT22;50527;52.414;13.226;2023-07-02T01:22:07;18.20;99.90
64209;DHT22;50527;52.414;13.226;2023-07-02T01:24:33;18.20;99.90
64209;DHT22;50527;52.414;13.226;2023-07-02T01:26:58;18.20;99.90
64209;DHT22;50527;52.414;13.226;2023-07-02T01:29:29;18.20;99.90
64209;DHT22;50527;52.414;13.226;2023-07-02T01:31:55;18.20;99.90
64209;DHT22;50527;52.414;13.226;2023-07-02T01:34:20;18.10;99.90
64209;DHT22;50527;52.414;13.226;2023-07-02T01:36:46;18.10;99.90
64209;DHT22;50527;52.414;13.226;2023-07-02T01:39:11;18.10;99.90
64209;DHT22;50527;52.414;13.226;2023-07-02T01:41:52;18.10;99.90
64209;DHT22;50527;52.414;13.226;2023-07-02T01:44:19;18.10;99.90
64209;DHT22;50527;52.414;13.226;2023-07-02T01:46:45;18.00;99.90
64209;DHT22;50527;52.414;13.226;2023-07-02T01:49:17;18.10;99.90
64209;DHT22;50527;52.414;13.226;2023-07-02T01:54:15;18.10;99.90
64209;DHT22;50527;52.414;13.226;2023-07-02T01:56:41;18.10;99.90
64209;DHT22;50527;52.414;13.226;2023-07-02T01:59:06;18.00;99.90
64209;DHT22;50527;52.414;13.226;2023-07-02T02:01:32;17.90;99.90
64209;DHT22;50527;52.414;13.226;2023-07-02T02:03:58;17.90;99.90
64209;DHT22;50527;52.414;13.226;2023-07-02T02:06:24;17.90;99.90
64209;DHT22;50527;52.414;13.226;2023-07-02T02:08:49;17.90;99.90
64209;DHT22;50527;52.414;13.226;2023-07-02T02:11:15;17.90;99.90
64209;DHT22;50527;52.414;13.226;2023-07-02T02:13:41;18.00;99.90
64209;DHT22;50527;52.414;13.226;2023-07-02T02:16:06;17.90;99.90
64209;DHT22;50527;52.414;13.226;2023-07-02T02:18:32;17.90;99.90
64209;DHT22;50527;52.414;13.226;2023-07-02T02:20:57;17.90;99.90
64209;DHT22;50527;52.414;13.226;2023-07-02T02:23:23;17.80;99.90
64209;DHT22;50527;52.414;13.226;2023-07-02T02:25:48;17.80;99.90
64209;DHT22;50527;52.414;13.226;2023-07-02T02:28:14;17.90;99.90
64209;DHT22;50527;52.414;13.226;2023-07-02T02:30:39;17.80;99.90
64209;DHT22;50527;52.414;13.226;2023-07-02T02:33:05;17.80;99.90
64209;DHT22;50527;52.414;13.226;2023-07-02T02:35:30;17.70;99.90
64209;DHT22;50527;52.414;13.226;2023-07-02T02:37:56;17.70;99.90
64209;DHT22;50527;52.414;13.226;2023-07-02T02:40:21;17.70;99.90
64209;DHT22;50527;52.414;13.226;2023-07-02T02:42:46;17.80;99.90
64209;DHT22;50527;52.414;13.226;2023-07-02T02:45:12;17.70;99.90
64209;DHT22;50527;52.414;13.226;2023-07-02T02:47:37;17.70;99.80
64209;DHT22;50527;52.414;13.226;2023-07-02T02:50:03;17.70;99.90
64209;DHT22;50527;52.414;13.226;2023-07-02T02:52:29;17.60;99.90
64209;DHT22;50527;52.414;13.226;2023-07-02T02:54:54;17.60;99.90
64209;DHT22;50527;52.414;13.226;2023-07-02T02:57:20;17.70;99.90
64209;DHT22;50527;52.414;13.226;2023-07-02T02:59:45;17.70;99.60
64209;DHT22;50527;52.414;13.226;2023-07-02T03:02:11;17.70;99.90
64209;DHT22;50527;52.414;13.226;2023-07-02T03:04:37;17.60;99.90
64209;DHT22;50527;52.414;13.226;2023-07-02T03:07:05;17.60;99.90
64209;DHT22;50527;52.414;13.226;2023-07-02T03:09:31;17.60;99.90
64209;DHT22;50527;52.414;13.226;2023-07-02T03:11:57;17.60;99.90
64209;DHT22;50527;52.414;13.226;2023-07-02T03:14:22;17.60;99.90
64209;DHT22;50527;52.414;13.226;2023-07-02T03:16:48;17.60;99.90
64209;DHT22;50527;52.414;13.226;2023-07-02T03:19:13;17.60;99.90
64209;DHT22;50527;52.414;13.226;2023-07-02T03:21:42;17.60;99.90
64209;DHT22;50527;52.414;13.226;2023-07-02T03:24:08;17.60;99.90
64209;DHT22;50527;52.414;13.226;2023-07-02T03:26:35;17.60;99.90
64209;DHT22;50527;52.414;13.226;2023-07-02T03:29:01;17.70;99.90
64209;DHT22;50527;52.414;13.226;2023-07-02T03:31:26;17.60;99.90
64209;DHT22;50527;52.414;13.226;2023-07-02T03:33:52;17.60;99.90
64209;DHT22;50527;52.414;13.226;2023-07-02T03:36:17;17.60;99.90
64209;DHT22;50527;52.414;13.226;2023-07-02T03:38:42;17.60;99.90
64209;DHT22;50527;52.414;13.226;2023-07-02T03:41:08;17.60;99.90
64209;DHT22;50527;52.414;13.226;2023-07-02T03:43:33;17.60;99.80
64209;DHT22;50527;52.414;13.226;2023-07-02T03:45:59;17.60;99.80
64209;DHT22;50527;52.414;13.226;2023-07-02T03:48:24;17.60;99.60
64209;DHT22;50527;52.414;13.226;2023-07-02T03:50:50;17.60;99.70
64209;DHT22;50527;52.414;13.226;2023-07-02T03:53:15;17.60;98.90
64209;DHT22;50527;52.414;13.226;2023-07-02T03:55:41;17.60;99.20
64209;DHT22;50527;52.414;13.226;2023-07-02T03:58:06;17.60;99.10
64209;DHT22;50527;52.414;13.226;2023-07-02T04:00:32;17.60;99.10
64209;DHT22;50527;52.414;13.226;2023-07-02T04:02:57;17.60;98.40
64209;DHT22;50527;52.414;13.226;2023-07-02T04:05:23;17.60;98.50
64209;DHT22;50527;52.414;13.226;2023-07-02T04:07:48;17.60;97.80
64209;DHT22;50527;52.414;13.226;2023-07-02T04:10:14;17.60;98.30
64209;DHT22;50527;52.414;13.226;2023-07-02T04:12:39;17.70;97.40
64209;DHT22;50527;52.414;13.226;2023-07-02T04:15:05;17.60;97.60
64209;DHT22;50527;52.414;13.226;2023-07-02T04:17:31;17.70;97.70
64209;DHT22;50527;52.414;13.226;2023-07-02T04:19:57;17.70;97.60
64209;DHT22;50527;52.414;13.226;2023-07-02T04:22:22;17.70;97.20
64209;DHT22;50527;52.414;13.226;2023-07-02T04:24:48;17.70;97.00
64209;DHT22;50527;52.414;13.226;2023-07-02T04:27:17;17.70;97.40
64209;DHT22;50527;52.414;13.226;2023-07-02T04:29:43;17.70;97.30
64209;DHT22;50527;52.414;13.226;2023-07-02T04:32:09;17.70;97.20
64209;DHT22;50527;52.414;13.226;2023-07-02T04:34:34;17.70;97.20
64209;DHT22;50527;52.414;13.226;2023-07-02T04:37:02;17.70;97.00
64209;DHT22;50527;52.414;13.226;2023-07-02T04:39:28;17.70;97.10
64209;DHT22;50527;52.414;13.226;2023-07-02T04:41:53;17.70;97.20
64209;DHT22;50527;52.414;13.226;2023-07-02T04:44:18;17.80;97.10
64209;DHT22;50527;52.414;13.226;2023-07-02T04:46:46;17.80;96.70
64209;DHT22;50527;52.414;13.226;2023-07-02T04:49:11;17.80;96.10
64209;DHT22;50527;52.414;13.226;2023-07-02T04:51:37;17.90;96.20
64209;DHT22;50527;52.414;13.226;2023-07-02T04:54:02;17.90;96.50
64209;DHT22;50527;52.414;13.226;2023-07-02T04:56:28;17.90;96.40
64209;DHT22;50527;52.414;13.226;2023-07-02T04:58:53;18.00;96.30
64209;DHT22;50527;52.414;13.226;2023-07-02T05:01:19;18.00;96.10
64209;DHT22;50527;52.414;13.226;2023-07-02T05:03:44;18.00;96.30
64209;DHT22;50527;52.414;13.226;2023-07-02T05:06:10;18.10;95.40
64209;DHT22;50527;52.414;13.226;2023-07-02T05:08:35;18.00;95.40
64209;DHT22;50527;52.414;13.226;2023-07-02T05:11:01;18.10;95.40
64209;DHT22;50527;52.414;13.226;2023-07-02T05:13:27;18.10;95.10
64209;DHT22;50527;52.414;13.226;2023-07-02T05:15:53;18.20;94.50
64209;DHT22;50527;52.414;13.226;2023-07-02T05:18:18;18.20;94.30
64209;DHT22;50527;52.414;13.226;2023-07-02T05:20:44;18.20;94.80
64209;DHT22;50527;52.414;13.226;2023-07-02T05:23:09;18.10;94.80
64209;DHT22;50527;52.414;13.226;2023-07-02T05:25:35;18.20;94.10
64209;DHT22;50527;52.414;13.226;2023-07-02T05:28:00;18.20;94.40
64209;DHT22;50527;52.414;13.226;2023-07-02T05:30:25;18.30;93.20
64209;DHT22;50527;52.414;13.226;2023-07-02T05:32:51;18.30;93.10
64209;DHT22;50527;52.414;13.226;2023-07-02T05:35:17;18.40;92.30
64209;DHT22;50527;52.414;13.226;2023-07-02T05:37:42;18.40;92.00
64209;DHT22;50527;52.414;13.226;2023-07-02T05:40:08;18.50;91.60
64209;DHT22;50527;52.414;13.226;2023-07-02T05:42:34;18.50;91.00
64209;DHT22;50527;52.414;13.226;2023-07-02T05:45:00;18.40;91.10
64209;DHT22;50527;52.414;13.226;2023-07-02T05:47:25;18.40;91.70
64209;DHT22;50527;52.414;13.226;2023-07-02T05:49:51;18.40;91.50
64209;DHT22;50527;52.414;13.226;2023-07-02T05:52:16;18.30;91.90
64209;DHT22;50527;52.414;13.226;2023-07-02T05:54:42;18.30;92.10
64209;DHT22;50527;52.414;13.226;2023-07-02T05:57:07;18.40;91.90
64209;DHT22;50527;52.414;13.226;2023-07-02T05:59:33;18.40;91.40
64209;DHT22;50527;52.414;13.226;2023-07-02T06:01:58;18.40;91.50
64209;DHT22;50527;52.414;13.226;2023-07-02T06:04:24;18.50;91.70
64209;DHT22;50527;52.414;13.226;2023-07-02T06:06:49;18.60;90.70
64209;DHT22;50527;52.414;13.226;2023-07-02T06:09:15;18.70;90.40
64209;DHT22;50527;52.414;13.226;2023-07-02T06:11:40;18.90;88.10
64209;DHT22;50527;52.414;13.226;2023-07-02T06:14:06;18.90;87.30
64209;DHT22;50527;52.414;13.226;2023-07-02T06:16:31;19.00;85.70
64209;DHT22;50527;52.414;13.226;2023-07-02T06:18:56;19.00;85.10
64209;DHT22;50527;52.414;13.226;2023-07-02T06:21:22;19.10;85.00
64209;DHT22;50527;52.414;13.226;2023-07-02T06:23:48;19.00;84.10
64209;DHT22;50527;52.414;13.226;2023-07-02T06:26:14;18.90;85.40
64209;DHT22;50527;52.414;13.226;2023-07-02T06:28:39;18.90;84.70
64209;DHT22;50527;52.414;13.226;2023-07-02T06:31:05;19.00;85.40
64209;DHT22;50527;52.414;13.226;2023-07-02T06:33:30;19.00;84.80
64209;DHT22;50527;52.414;13.226;2023-07-02T06:35:56;19.00;85.00
64209;DHT22;50527;52.414;13.226;2023-07-02T06:38:21;19.00;84.30
64209;DHT22;50527;52.414;13.226;2023-07-02T06:40:47;19.10;84.30
64209;DHT22;50527;52.414;13.226;2023-07-02T06:43:13;19.20;84.10
64209;DHT22;50527;52.414;13.226;2023-07-02T06:45:38;19.30;79.80
64209;DHT22;50527;52.414;13.226;2023-07-02T06:48:04;19.50;80.80
64209;DHT22;50527;52.414;13.226;2023-07-02T06:50:30;19.70;78.50
64209;DHT22;50527;52.414;13.226;2023-07-02T06:52:55;19.80;75.70
64209;DHT22;50527;52.414;13.226;2023-07-02T06:55:21;19.80;77.20
64209;DHT22;50527;52.414;13.226;2023-07-02T06:57:46;19.80;75.30
64209;DHT22;50527;52.414;13.226;2023-07-02T07:00:13;19.80;75.60
64209;DHT22;50527;52.414;13.226;2023-07-02T07:02:38;19.80;74.60
64209;DHT22;50527;52.414;13.226;2023-07-02T07:05:04;19.70;76.20
64209;DHT22;50527;52.414;13.226;2023-07-02T07:07:30;19.70;75.30
64209;DHT22;50527;52.414;13.226;2023-07-02T07:09:55;19.60;76.30
64209;DHT22;50527;52.414;13.226;2023-07-02T07:12:21;19.70;78.30
64209;DHT22;50527;52.414;13.226;2023-07-02T07:14:46;19.70;76.90
64209;DHT22;50527;52.414;13.226;2023-07-02T07:17:12;19.80;74.30
64209;DHT22;50527;52.414;13.226;2023-07-02T07:19:37;19.80;74.80
64209;DHT22;50527;52.414;13.226;2023-07-02T07:22:03;20.10;74.10
64209;DHT22;50527;52.414;13.226;2023-07-02T07:24:29;20.70;73.10
64209;DHT22;50527;52.414;13.226;2023-07-02T07:26:54;21.50;68.50
64209;DHT22;50527;52.414;13.226;2023-07-02T07:29:20;21.40;69.50
64209;DHT22;50527;52.414;13.226;2023-07-02T07:31:45;21.60;69.50
64209;DHT22;50527;52.414;13.226;2023-07-02T07:34:11;21.60;67.50
64209;DHT22;50527;52.414;13.226;2023-07-02T07:36:37;21.40;68.10
64209;DHT22;50527;52.414;13.226;2023-07-02T07:39:02;21.10;68.80
64209;DHT22;50527;52.414;13.226;2023-07-02T07:41:28;20.80;69.20
64209;DHT22;50527;52.414;13.226;2023-07-02T07:43:53;20.40;69.70
64209;DHT22;50527;52.414;13.226;2023-07-02T07:46:19;20.20;72.30
64209;DHT22;50527;52.414;13.226;2023-07-02T07:48:44;19.90;73.20
64209;DHT22;50527;52.414;13.226;2023-07-02T07:51:10;19.80;74.80
64209;DHT22;50527;52.414;13.226;2023-07-02T07:53:38;19.70;75.60
64209;DHT22;50527;52.414;13.226;2023-07-02T07:56:05;19.70;75.10
64209;DHT22;50527;52.414;13.226;2023-07-02T07:58:30;19.60;75.50
64209;DHT22;50527;52.414;13.226;2023-07-02T08:00:57;19.60;76.00
64209;DHT22;50527;52.414;13.226;2023-07-02T08:03:22;19.50;77.10
64209;DHT22;50527;52.414;13.226;2023-07-02T08:05:48;19.50;76.90
64209;DHT22;50527;52.414;13.226;2023-07-02T08:08:13;19.40;76.80
64209;DHT22;50527;52.414;13.226;2023-07-02T08:10:39;19.30;77.00
64209;DHT22;50527;52.414;13.226;2023-07-02T08:13:04;19.20;77.60
64209;DHT22;50527;52.414;13.226;2023-07-02T08:15:30;19.20;77.40
64209;DHT22;50527;52.414;13.226;2023-07-02T08:17:55;19.30;76.20
64209;DHT22;50527;52.414;13.226;2023-07-02T08:20:23;19.30;76.10
64209;DHT22;50527;52.414;13.226;2023-07-02T08:22:49;19.40;75.30
64209;DHT22;50527;52.414;13.226;2023-07-02T08:25:17;19.30;76.30
64209;DHT22;50527;52.414;13.226;2023-07-02T08:27:43;19.30;72.80
64209;DHT22;50527;52.414;13.226;2023-07-02T08:30:09;19.20;71.30
64209;DHT22;50527;52.414;13.226;2023-07-02T08:32:34;19.00;72.00
64209;DHT22;50527;52.414;13.226;2023-07-02T08:35:00;18.90;71.90
64209;DHT22;50527;52.414;13.226;2023-07-02T08:37:25;18.70;70.20
64209;DHT22;50527;52.414;13.226;2023-07-02T08:39:51;18.70;71.50
64209;DHT22;50527;52.414;13.226;2023-07-02T08:42:16;18.60;70.00
64209;DHT22;50527;52.414;13.226;2023-07-02T08:44:45;18.70;70.80
64209;DHT22;50527;52.414;13.226;2023-07-02T08:47:11;18.70;72.50
64209;DHT22;50527;52.414;13.226;2023-07-02T08:49:37;18.70;71.50
64209;DHT22;50527;52.414;13.226;2023-07-02T08:52:02;18.60;71.70
64209;DHT22;50527;52.414;13.226;2023-07-02T08:54:28;18.60;73.00
64209;DHT22;50527;52.414;13.226;2023-07-02T08:56:54;18.60;72.40
64209;DHT22;50527;52.414;13.226;2023-07-02T08:59:19;18.60;72.00
64209;DHT22;50527;52.414;13.226;2023-07-02T09:01:52;18.60;73.20
64209;DHT22;50527;52.414;13.226;2023-07-02T09:04:19;18.60;72.40
64209;DHT22;50527;52.414;13.226;2023-07-02T09:06:46;18.60;73.50
64209;DHT22;50527;52.414;13.226;2023-07-02T09:09:12;18.70;73.00
64209;DHT22;50527;52.414;13.226;2023-07-02T09:11:51;18.70;73.40
64209;DHT22;50527;52.414;13.226;2023-07-02T09:14:30;18.80;74.00
64209;DHT22;50527;52.414;13.226;2023-07-02T09:17:08;18.80;74.70
64209;DHT22;50527;52.414;13.226;2023-07-02T09:19:35;18.90;74.90
64209;DHT22;50527;52.414;13.226;2023-07-02T09:22:01;19.00;74.30
64209;DHT22;50527;52.414;13.226;2023-07-02T09:24:29;19.10;74.50
64209;DHT22;50527;52.414;13.226;2023-07-02T09:26:59;19.20;75.10
64209;DHT22;50527;52.414;13.226;2023-07-02T09:31:51;19.30;73.60
64209;DHT22;50527;52.414;13.226;2023-07-02T09:34:16;19.30;73.60
64209;DHT22;50527;52.414;13.226;2023-07-02T09:36:43;19.40;73.50
64209;DHT22;50527;52.414;13.226;2023-07-02T09:39:19;19.50;73.00
64209;DHT22;50527;52.414;13.226;2023-07-02T09:41:45;19.60;72.80
64209;DHT22;50527;52.414;13.226;2023-07-02T09:44:13;19.70;73.00
64209;DHT22;50527;52.414;13.226;2023-07-02T09:46:49;19.80;73.20
64209;DHT22;50527;52.414;13.226;2023-07-02T09:49:20;19.80;72.30
64209;DHT22;50527;52.414;13.226;2023-07-02T09:51:46;19.80;71.70
64209;DHT22;50527;52.414;13.226;2023-07-02T09:54:12;20.00;71.00
64209;DHT22;50527;52.414;13.226;2023-07-02T09:56:39;20.50;70.30
64209;DHT22;50527;52.414;13.226;2023-07-02T09:59:05;21.10;67.80
64209;DHT22;50527;52.414;13.226;2023-07-02T10:01:30;22.00;65.00
64209;DHT22;50527;52.414;13.226;2023-07-02T10:03:56;23.20;61.10
64209;DHT22;50527;52.414;13.226;2023-07-02T10:06:21;24.80;54.80
64209;DHT22;50527;52.414;13.226;2023-07-02T10:08:54;26.10;50.40
64209;DHT22;50527;52.414;13.226;2023-07-02T10:11:19;27.00;47.60
64209;DHT22;50527;52.414;13.226;2023-07-02T10:13:45;26.80;46.80
64209;DHT22;50527;52.414;13.226;2023-07-02T10:16:10;27.50;45.00
64209;DHT22;50527;52.414;13.226;2023-07-02T10:18:36;27.40;44.70
64209;DHT22;50527;52.414;13.226;2023-07-02T10:21:16;26.60;46.30
64209;DHT22;50527;52.414;13.226;2023-07-02T10:23:42;25.90;47.20
64209;DHT22;50527;52.414;13.226;2023-07-02T10:26:18;25.30;47.50
64209;DHT22;50527;52.414;13.226;2023-07-02T10:28:56;25.00;48.50
64209;DHT22;50527;52.414;13.226;2023-07-02T10:31:21;25.00;48.00
64209;DHT22;50527;52.414;13.226;2023-07-02T10:33:47;24.30;49.80
64209;DHT22;50527;52.414;13.226;2023-07-02T10:36:24;23.90;50.50
64209;DHT22;50527;52.414;13.226;2023-07-02T10:38:50;23.40;52.30
64209;DHT22;50527;52.414;13.226;2023-07-02T10:41:29;23.10;52.80
64209;DHT22;50527;52.414;13.226;2023-07-02T10:44:08;22.70;54.00
64209;DHT22;50527;52.414;13.226;2023-07-02T10:46:34;22.60;55.40
64209;DHT22;50527;52.414;13.226;2023-07-02T10:49:00;22.50;54.80
64209;DHT22;50527;52.414;13.226;2023-07-02T10:51:26;22.60;57.50
64209;DHT22;50527;52.414;13.226;2023-07-02T10:54:01;22.60;54.50
64209;DHT22;50527;52.414;13.226;2023-07-02T10:56:28;22.60;53.70
64209;DHT22;50527;52.414;13.226;2023-07-02T10:58:54;22.40;53.30
64209;DHT22;50527;52.414;13.226;2023-07-02T11:01:30;22.30;52.00
64209;DHT22;50527;52.414;13.226;2023-07-02T11:04:03;22.00;52.40
64209;DHT22;50527;52.414;13.226;2023-07-02T11:06:32;22.00;54.50
64209;DHT22;50527;52.414;13.226;2023-07-02T11:08:59;22.10;54.40
64209;DHT22;50527;52.414;13.226;2023-07-02T11:11:25;22.30;51.80
64209;DHT22;50527;52.414;13.226;2023-07-02T11:13:51;22.40;49.60
64209;DHT22;50527;52.414;13.226;2023-07-02T11:16:27;22.40;50.40
64209;DHT22;50527;52.414;13.226;2023-07-02T11:19:05;22.40;48.20
64209;DHT22;50527;52.414;13.226;2023-07-02T11:21:32;22.20;48.20
64209;DHT22;50527;52.414;13.226;2023-07-02T11:24:06;22.10;47.90
64209;DHT22;50527;52.414;13.226;2023-07-02T11:26:39;22.30;47.60
64209;DHT22;50527;52.414;13.226;2023-07-02T11:29:10;22.50;47.40
64209;DHT22;50527;52.414;13.226;2023-07-02T11:31:36;22.60;47.10
64209;DHT22;50527;52.414;13.226;2023-07-02T11:34:10;22.70;46.50
64209;DHT22;50527;52.414;13.226;2023-07-02T11:36:36;22.70;45.50
64209;DHT22;50527;52.414;13.226;2023-07-02T11:39:01;22.90;43.70
64209;DHT22;50527;52.414;13.226;2023-07-02T11:41:36;23.00;43.90
64209;DHT22;50527;52.414;13.226;2023-07-02T11:44:02;22.90;44.10
64209;DHT22;50527;52.414;13.226;2023-07-02T11:46:28;22.80;44.20
64209;DHT22;50527;52.414;13.226;2023-07-02T11:48:53;22.70;45.20
64209;DHT22;50527;52.414;13.226;2023-07-02T11:51:19;22.80;46.10
64209;DHT22;50527;52.414;13.226;2023-07-02T11:53:44;22.90;44.00
64209;DHT22;50527;52.414;13.226;2023-07-02T11:56:10;22.90;45.30
64209;DHT22;50527;52.414;13.226;2023-07-02T11:58:35;23.00;44.80
64209;DHT22;50527;52.414;13.226;2023-07-02T12:01:01;23.00;45.20
64209;DHT22;50527;52.414;13.226;2023-07-02T12:03:26;23.00;45.60
64209;DHT22;50527;52.414;13.226;2023-07-02T12:05:52;22.90;45.90
64209;DHT22;50527;52.414;13.226;2023-07-02T12:08:17;22.70;45.80
64209;DHT22;50527;52.414;13.226;2023-07-02T12:10:43;22.50;46.70
64209;DHT22;50527;52.414;13.226;2023-07-02T12:13:08;22.40;47.40
64209;DHT22;50527;52.414;13.226;2023-07-02T12:15:34;22.30;47.30
64209;DHT22;50527;52.414;13.226;2023-07-02T12:17:59;22.30;46.90
64209;DHT22;50527;52.414;13.226;2023-07-02T12:20:25;22.40;46.60
64209;DHT22;50527;52.414;13.226;2023-07-02T12:22:50;22.60;45.30
64209;DHT22;50527;52.414;13.226;2023-07-02T12:25:16;22.90;44.80
64209;DHT22;50527;52.414;13.226;2023-07-02T12:27:41;23.10;44.70
64209;DHT22;50527;52.414;13.226;2023-07-02T12:30:07;23.30;43.50
64209;DHT22;50527;52.414;13.226;2023-07-02T12:32:33;23.20;44.40
64209;DHT22;50527;52.414;13.226;2023-07-02T12:34:59;23.00;42.10
64209;DHT22;50527;52.414;13.226;2023-07-02T12:37:24;22.60;44.60
64209;DHT22;50527;52.414;13.226;2023-07-02T12:39:50;22.40;44.50
64209;DHT22;50527;52.414;13.226;2023-07-02T12:42:16;22.20;45.10
64209;DHT22;50527;52.414;13.226;2023-07-02T12:44:41;22.20;45.70
64209;DHT22;50527;52.414;13.226;2023-07-02T12:47:07;22.20;45.20
64209;DHT22;50527;52.414;13.226;2023-07-02T12:49:33;22.40;44.70
64209;DHT22;50527;52.414;13.226;2023-07-02T12:51:59;22.60;43.60
64209;DHT22;50527;52.414;13.226;2023-07-02T12:54:25;22.70;43.60
64209;DHT22;50527;52.414;13.226;2023-07-02T12:56:50;22.80;44.30
64209;DHT22;50527;52.414;13.226;2023-07-02T12:59:16;22.90;43.50
64209;DHT22;50527;52.414;13.226;2023-07-02T13:01:41;23.10;42.90
64209;DHT22;50527;52.414;13.226;2023-07-02T13:04:07;23.30;42.00
64209;DHT22;50527;52.414;13.226;2023-07-02T13:06:32;23.30;40.80
64209;DHT22;50527;52.414;13.226;2023-07-02T13:09:05;23.30;40.80
64209;DHT22;50527;52.414;13.226;2023-07-02T13:11:32;23.30;41.40
64209;DHT22;50527;52.414;13.226;2023-07-02T13:13:57;23.30;41.30
64209;DHT22;50527;52.414;13.226;2023-07-02T13:16:22;23.30;41.00
64209;DHT22;50527;52.414;13.226;2023-07-02T13:18:49;23.30;40.20
64209;DHT22;50527;52.414;13.226;2023-07-02T13:21:15;23.20;40.70
64209;DHT22;50527;52.414;13.226;2023-07-02T13:23:40;23.00;40.70
64209;DHT22;50527;52.414;13.226;2023-07-02T13:26:06;23.00;40.30
64209;DHT22;50527;52.414;13.226;2023-07-02T13:28:31;23.20;40.30
64209;DHT22;50527;52.414;13.226;2023-07-02T13:30:57;23.20;39.80
64209;DHT22;50527;52.414;13.226;2023-07-02T13:33:22;23.20;39.20
64209;DHT22;50527;52.414;13.226;2023-07-02T13:35:48;23.00;39.30
64209;DHT22;50527;52.414;13.226;2023-07-02T13:38:14;22.90;39.60
64209;DHT22;50527;52.414;13.226;2023-07-02T13:40:39;23.00;39.80
64209;DHT22;50527;52.414;13.226;2023-07-02T13:43:05;23.10;40.50
64209;DHT22;50527;52.414;13.226;2023-07-02T13:45:31;23.00;40.10
64209;DHT22;50527;52.414;13.226;2023-07-02T13:47:56;23.00;39.70
64209;DHT22;50527;52.414;13.226;2023-07-02T13:50:22;23.00;39.90
64209;DHT22;50527;52.414;13.226;2023-07-02T13:52:48;22.90;40.00
64209;DHT22;50527;52.414;13.226;2023-07-02T13:55:15;22.90;39.70
64209;DHT22;50527;52.414;13.226;2023-07-02T13:57:40;22.90;39.50
64209;DHT22;50527;52.414;13.226;2023-07-02T14:00:07;22.80;39.30
64209;DHT22;50527;52.414;13.226;2023-07-02T14:02:32;23.00;38.90
64209;DHT22;50527;52.414;13.226;2023-07-02T14:04:58;23.00;39.50
64209;DHT22;50527;52.414;13.226;2023-07-02T14:07:25;23.20;39.70
64209;DHT22;50527;52.414;13.226;2023-07-02T14:09:51;23.20;39.70
64209;DHT22;50527;52.414;13.226;2023-07-02T14:12:16;23.30;39.50
64209;DHT22;50527;52.414;13.226;2023-07-02T14:14:42;23.40;38.20
64209;DHT22;50527;52.414;13.226;2023-07-02T14:17:07;23.40;39.50
64209;DHT22;50527;52.414;13.226;2023-07-02T14:19:33;23.40;39.00
64209;DHT22;50527;52.414;13.226;2023-07-02T14:21:59;23.40;38.40
64209;DHT22;50527;52.414;13.226;2023-07-02T14:24:24;23.50;38.60
64209;DHT22;50527;52.414;13.226;2023-07-02T14:26:51;23.40;38.70
64209;DHT22;50527;52.414;13.226;2023-07-02T14:29:17;23.40;38.60
64209;DHT22;50527;52.414;13.226;2023-07-02T14:31:42;23.30;38.10
64209;DHT22;50527;52.414;13.226;2023-07-02T14:34:08;23.30;38.20
64209;DHT22;50527;52.414;13.226;2023-07-02T14:36:33;23.20;37.60
64209;DHT22;50527;52.414;13.226;2023-07-02T14:38:59;23.10;38.10
64209;DHT22;50527;52.414;13.226;2023-07-02T14:41:24;23.10;37.70
64209;DHT22;50527;52.414;13.226;2023-07-02T14:43:50;23.20;38.20
64209;DHT22;50527;52.414;13.226;2023-07-02T14:46:15;23.30;37.50
64209;DHT22;50527;52.414;13.226;2023-07-02T14:48:41;23.40;37.30
64209;DHT22;50527;52.414;13.226;2023-07-02T14:51:06;23.40;37.90
64209;DHT22;50527;52.414;13.226;2023-07-02T14:53:33;23.20;37.10
64209;DHT22;50527;52.414;13.226;2023-07-02T14:56:00;23.30;38.10
64209;DHT22;50527;52.414;13.226;2023-07-02T14:58:27;23.20;37.50
64209;DHT22;50527;52.414;13.226;2023-07-02T15:00:55;23.20;37.70
64209;DHT22;50527;52.414;13.226;2023-07-02T15:03:23;23.20;37.20
64209;DHT22;50527;52.414;13.226;2023-07-02T15:05:50;23.10;38.00
64209;DHT22;50527;52.414;13.226;2023-07-02T15:08:16;23.00;38.90
64209;DHT22;50527;52.414;13.226;2023-07-02T15:10:50;22.80;38.60
64209;DHT22;50527;52.414;13.226;2023-07-02T15:13:16;22.90;39.80
64209;DHT22;50527;52.414;13.226;2023-07-02T15:15:43;22.80;38.80
64209;DHT22;50527;52.414;13.226;2023-07-02T15:18:09;22.80;38.10